createdAt,value
2017-08-25T00:02:17.225Z,61.10
2017-08-25T00:04:44.701Z,60.90
2017-08-25T00:07:12.967Z,63.30
2017-08-25T00:09:40.428Z,63.30
2017-08-25T00:12:08.662Z,63.90
2017-08-25T00:14:36.162Z,63.80
2017-08-25T00:17:03.626Z,62.30
2017-08-25T00:19:31.103Z,61.90
2017-08-25T00:21:58.611Z,63.70
2017-08-25T00:24:26.091Z,65.10
2017-08-25T00:26:53.606Z,63.10
2017-08-25T00:29:21.088Z,62.20
2017-08-25T00:31:48.547Z,61.80
2017-08-25T00:34:16.033Z,61.70
2017-08-25T00:36:44.271Z,62.50
2017-08-25T00:39:11.789Z,62.40
2017-08-25T00:41:39.239Z,61.30
2017-08-25T00:44:06.740Z,60.90
2017-08-25T00:46:34.189Z,60.80
2017-08-25T00:49:01.691Z,60.80
2017-08-25T00:51:29.202Z,61.00
2017-08-25T00:53:56.660Z,60.80
2017-08-25T00:56:24.148Z,60.40
2017-08-25T00:58:51.619Z,60.40
2017-08-25T01:01:19.082Z,60.70
2017-08-25T01:03:46.584Z,61.80
2017-08-25T01:06:14.046Z,63.70
2017-08-25T01:08:41.543Z,62.30
2017-08-25T01:11:09.023Z,61.70
2017-08-25T01:13:36.476Z,60.90
2017-08-25T01:16:03.963Z,61.70
2017-08-25T01:18:31.419Z,61.30
2017-08-25T01:20:58.912Z,61.10
2017-08-25T01:23:26.384Z,61.20
2017-08-25T01:25:53.882Z,60.80
2017-08-25T01:28:21.352Z,62.40
2017-08-25T01:30:48.824Z,62.80
2017-08-25T01:33:16.315Z,62.00
2017-08-25T01:35:43.783Z,61.10
2017-08-25T01:38:11.279Z,60.80
2017-08-25T01:40:39.500Z,60.70
2017-08-25T01:43:06.981Z,60.60
2017-08-25T01:45:34.501Z,60.50
2017-08-25T01:48:01.963Z,60.40
2017-08-25T01:50:29.450Z,60.80
2017-08-25T01:52:56.956Z,60.60
2017-08-25T01:55:24.438Z,60.40
2017-08-25T01:57:51.961Z,60.60
2017-08-25T02:00:19.439Z,61.20
2017-08-25T02:02:46.909Z,60.50
2017-08-25T02:05:14.387Z,60.40
2017-08-25T02:07:41.847Z,61.20
2017-08-25T02:10:09.360Z,61.60
2017-08-25T02:12:36.811Z,62.30
2017-08-25T02:15:04.307Z,62.60
2017-08-25T02:17:31.787Z,64.10
2017-08-25T02:19:59.259Z,64.50
2017-08-25T02:22:26.733Z,63.00
2017-08-25T02:24:54.211Z,62.80
2017-08-25T02:27:21.699Z,62.10
2017-08-25T02:29:49.171Z,61.80
2017-08-25T02:32:16.676Z,61.50
2017-08-25T02:34:44.155Z,62.60
2017-08-25T02:37:11.625Z,63.00
2017-08-25T02:39:39.105Z,64.00
2017-08-25T02:42:06.576Z,64.60
2017-08-25T02:44:34.053Z,65.60
2017-08-25T02:47:01.559Z,72.80
2017-08-25T02:49:29.025Z,74.80
2017-08-25T02:51:56.520Z,74.50
2017-08-25T02:54:24.009Z,70.00
2017-08-25T02:56:52.243Z,64.20
2017-08-25T02:59:19.739Z,64.20
2017-08-25T04:57:06.960Z,52.20
2017-08-25T05:00:47.050Z,51.20
2017-08-25T05:08:16.089Z,54.40
2017-08-25T05:10:43.155Z,49.70
2017-08-25T05:16:55.244Z,52.30
2017-08-25T05:19:22.276Z,51.20
2017-08-25T05:21:49.318Z,56.10
2017-08-25T05:24:16.376Z,60.30
2017-08-25T05:26:43.409Z,60.30
2017-08-25T05:29:10.461Z,60.80
2017-08-25T05:31:37.534Z,60.70
2017-08-25T05:34:04.589Z,60.90
2017-08-25T05:36:31.637Z,60.80
2017-08-25T05:38:58.667Z,60.90
2017-08-25T05:41:25.739Z,60.90
2017-08-25T05:43:52.784Z,61.50
2017-08-25T05:46:19.861Z,62.20
2017-08-25T05:48:46.922Z,61.90
2017-08-25T05:51:13.935Z,61.50
2017-08-25T05:53:41.008Z,61.70
2017-08-25T05:56:08.011Z,62.10
2017-08-25T05:58:35.040Z,62.60
2017-08-25T06:01:02.086Z,62.30
2017-08-25T06:03:29.114Z,63.40
2017-08-25T06:05:56.168Z,64.50
2017-08-25T06:08:23.211Z,63.50
2017-08-25T06:10:50.235Z,63.50
2017-08-25T06:13:17.291Z,63.40
2017-08-25T06:15:44.323Z,63.10
2017-08-25T06:18:11.351Z,63.10
2017-08-25T06:20:38.414Z,63.60
2017-08-25T06:23:05.463Z,64.30
2017-08-25T06:25:32.497Z,64.30
2017-08-25T06:27:59.506Z,64.60
2017-08-25T06:30:26.552Z,64.10
2017-08-25T06:32:53.607Z,63.40
2017-08-25T06:35:20.662Z,63.00
2017-08-25T06:37:47.674Z,62.50
2017-08-25T06:40:14.726Z,62.80
2017-08-25T06:42:41.782Z,62.40
2017-08-25T06:45:08.856Z,62.10
2017-08-25T06:47:35.898Z,61.80
2017-08-25T06:50:02.939Z,61.80
2017-08-25T06:52:29.991Z,62.00
2017-08-25T06:54:57.038Z,62.20
2017-08-25T06:57:24.091Z,62.90
2017-08-25T06:59:51.110Z,62.60
2017-08-25T07:02:18.158Z,62.40
2017-08-25T07:04:45.203Z,63.00
2017-08-25T07:07:12.252Z,62.90
2017-08-25T07:09:39.278Z,63.20
2017-08-25T07:12:06.332Z,64.30
2017-08-25T07:14:33.347Z,65.30
2017-08-25T07:17:00.391Z,65.00
2017-08-25T07:19:27.431Z,63.20
2017-08-25T07:21:54.434Z,63.40
2017-08-25T07:24:21.494Z,63.70
2017-08-25T07:26:48.524Z,63.80
2017-08-25T07:29:15.563Z,62.10
2017-08-25T07:31:42.617Z,61.80
2017-08-25T07:34:09.645Z,61.20
2017-08-25T07:36:36.675Z,61.60
2017-08-25T07:39:04.483Z,61.20
2017-08-25T07:41:31.517Z,61.20
2017-08-25T07:43:58.568Z,61.80
2017-08-25T07:46:25.588Z,61.70
2017-08-25T07:48:52.632Z,61.10
2017-08-25T07:51:19.682Z,60.20
2017-08-25T07:53:46.718Z,60.10
2017-08-25T07:56:13.761Z,60.80
2017-08-25T07:58:40.841Z,60.80
2017-08-25T08:01:07.905Z,60.00
2017-08-25T08:03:34.929Z,60.60
2017-08-25T08:06:01.958Z,59.90
2017-08-25T08:08:29.006Z,60.20
2017-08-25T08:10:56.041Z,61.40
2017-08-25T08:13:23.093Z,60.40
2017-08-25T08:15:50.114Z,60.20
2017-08-25T08:18:17.138Z,60.50
2017-08-25T08:20:44.170Z,59.30
2017-08-25T08:23:11.198Z,60.00
2017-08-25T08:25:38.239Z,59.90
2017-08-25T08:28:05.256Z,58.30
2017-08-25T08:30:32.353Z,59.30
2017-08-25T08:32:59.358Z,58.90
2017-08-25T08:35:26.391Z,60.00
2017-08-25T08:37:53.423Z,59.40
2017-08-25T08:40:20.459Z,57.90
2017-08-25T08:42:47.486Z,58.30
2017-08-25T08:45:14.503Z,56.70
2017-08-25T08:47:41.571Z,57.20
2017-08-25T08:50:08.599Z,59.20
2017-08-25T08:52:35.637Z,58.80
2017-08-25T08:55:02.689Z,58.30
2017-08-25T08:57:29.728Z,56.60
2017-08-25T08:59:56.754Z,56.60
2017-08-25T09:02:23.803Z,56.90
2017-08-25T09:04:50.821Z,56.70
2017-08-25T09:07:17.881Z,56.10
2017-08-25T09:09:44.915Z,56.60
2017-08-25T09:12:11.990Z,55.50
2017-08-25T09:14:39.003Z,56.60
2017-08-25T09:17:06.045Z,57.20
2017-08-25T09:19:33.066Z,56.90
2017-08-25T09:22:00.130Z,54.90
2017-08-25T09:24:27.166Z,53.20
2017-08-25T09:26:54.196Z,51.00
2017-08-25T09:29:21.253Z,53.70
2017-08-25T09:31:48.298Z,51.20
2017-08-25T09:34:15.355Z,49.50
2017-08-25T09:36:42.411Z,47.20
2017-08-25T09:39:09.437Z,46.30
2017-08-25T09:41:36.569Z,45.50
2017-08-25T09:44:03.570Z,44.30
2017-08-25T09:46:30.640Z,47.70
2017-08-25T09:48:58.469Z,43.80
2017-08-25T09:51:25.490Z,43.70
2017-08-25T09:53:52.565Z,43.40
2017-08-25T09:56:19.606Z,43.80
2017-08-25T09:58:46.626Z,44.00
2017-08-25T10:01:13.669Z,45.80
2017-08-25T10:03:41.427Z,45.40
2017-08-25T10:06:08.487Z,46.30
2017-08-25T10:08:35.498Z,44.20
2017-08-25T10:11:02.536Z,46.10
2017-08-25T10:13:29.588Z,43.30
2017-08-25T10:15:56.612Z,43.50
2017-08-25T10:18:23.634Z,44.80
2017-08-25T10:20:50.699Z,45.50
2017-08-25T10:23:17.727Z,46.50
2017-08-25T10:25:44.773Z,45.40
2017-08-25T10:28:11.799Z,46.40
2017-08-25T10:30:38.839Z,47.80
2017-08-25T10:33:11.741Z,46.70
2017-08-25T10:35:44.768Z,48.50
2017-08-25T10:38:17.650Z,47.30
2017-08-25T10:40:50.562Z,46.70
2017-08-25T10:43:23.641Z,47.90
2017-08-25T10:45:50.665Z,48.00
2017-08-25T10:48:17.706Z,48.60
2017-08-25T10:50:44.767Z,47.70
2017-08-25T10:53:11.784Z,46.80
2017-08-25T10:55:38.826Z,46.60
2017-08-25T10:58:05.888Z,47.50
2017-08-25T11:00:32.915Z,46.70
2017-08-25T11:02:59.939Z,48.70
2017-08-25T11:05:26.990Z,46.70
2017-08-25T11:07:54.015Z,46.70
2017-08-25T11:10:21.042Z,47.80
2017-08-25T11:12:48.084Z,46.80
2017-08-25T11:15:15.106Z,47.00
2017-08-25T11:17:42.146Z,47.60
2017-08-25T11:20:09.189Z,47.20
2017-08-25T11:22:36.244Z,47.70
2017-08-25T11:25:03.299Z,47.80
2017-08-25T11:27:30.337Z,48.60
2017-08-25T11:29:57.386Z,47.50
2017-08-25T11:32:24.397Z,46.60
2017-08-25T11:34:51.471Z,47.50
2017-08-25T11:37:18.487Z,47.00
2017-08-25T11:39:45.543Z,47.40
2017-08-25T11:42:12.614Z,48.10
2017-08-25T11:44:39.623Z,47.60
2017-08-25T11:47:06.660Z,47.80
2017-08-25T11:49:33.700Z,47.10
2017-08-25T11:52:00.727Z,47.40
2017-08-25T11:54:27.784Z,47.40
2017-08-25T11:56:54.821Z,47.60
2017-08-25T11:59:21.871Z,47.10
2017-08-25T12:01:48.938Z,47.00
2017-08-25T12:04:15.953Z,47.40
2017-08-25T12:06:43.748Z,47.70
2017-08-25T12:09:10.798Z,47.50
2017-08-25T12:11:37.818Z,47.70
2017-08-25T12:14:04.867Z,47.80
2017-08-25T12:16:32.702Z,48.20
2017-08-25T12:18:59.743Z,48.10
2017-08-25T12:21:26.842Z,46.80
2017-08-25T12:23:53.858Z,46.70
2017-08-25T12:26:20.891Z,46.80
2017-08-25T12:28:47.954Z,48.20
2017-08-25T12:31:14.979Z,46.80
2017-08-25T12:33:42.028Z,47.00
2017-08-25T12:36:09.050Z,46.80
2017-08-25T12:38:36.131Z,48.20
2017-08-25T12:41:03.142Z,47.00
2017-08-25T12:43:30.169Z,46.80
2017-08-25T12:45:57.202Z,47.10
2017-08-25T12:48:24.265Z,47.90
2017-08-25T12:50:51.318Z,47.70
2017-08-25T12:53:18.344Z,47.40
2017-08-25T12:55:45.386Z,46.80
2017-08-25T12:58:12.426Z,47.00
2017-08-25T13:00:39.455Z,47.40
2017-08-25T13:03:06.484Z,47.70
2017-08-25T13:05:33.553Z,47.90
2017-08-25T13:08:00.574Z,47.60
2017-08-25T13:10:27.621Z,47.50
2017-08-25T13:12:54.670Z,47.40
2017-08-25T13:15:21.720Z,47.90
2017-08-25T13:17:48.787Z,47.60
2017-08-25T13:20:15.813Z,47.20
2017-08-25T13:22:42.872Z,47.90
2017-08-25T13:25:09.907Z,47.80
2017-08-25T13:27:36.918Z,48.50
2017-08-25T13:30:03.958Z,48.50
2017-08-25T13:32:30.998Z,48.00
2017-08-25T13:34:58.042Z,48.30
2017-08-25T13:37:25.087Z,48.40
2017-08-25T13:39:52.111Z,48.40
2017-08-25T13:42:19.174Z,48.60
2017-08-25T13:44:46.192Z,48.00
2017-08-25T13:47:13.218Z,48.40
2017-08-25T13:49:40.266Z,48.40
2017-08-25T13:52:07.295Z,48.50
2017-08-25T13:54:34.347Z,48.70
2017-08-25T13:57:01.372Z,48.20
2017-08-25T13:59:28.422Z,48.80
2017-08-25T14:01:55.438Z,48.90
2017-08-25T14:04:22.518Z,48.90
2017-08-25T14:06:49.531Z,48.60
2017-08-25T14:09:16.558Z,47.90
2017-08-25T14:11:43.622Z,48.10
2017-08-25T14:14:10.649Z,48.90
2017-08-25T14:16:37.750Z,48.60
2017-08-25T14:19:04.776Z,48.80
2017-08-25T14:21:31.804Z,48.50
2017-08-25T14:23:58.867Z,48.60
2017-08-25T14:26:25.883Z,48.00
2017-08-25T14:28:52.908Z,47.90
2017-08-25T14:31:19.954Z,48.20
2017-08-25T14:33:47.030Z,47.50
2017-08-25T14:36:14.068Z,47.50
2017-08-25T14:38:41.086Z,48.40
2017-08-25T14:41:08.147Z,48.30
2017-08-25T14:43:35.159Z,48.30
2017-08-25T14:46:02.226Z,47.90
2017-08-25T14:48:29.257Z,48.70
2017-08-25T14:50:56.839Z,48.60
2017-08-25T14:53:23.912Z,48.40
2017-08-25T14:55:50.950Z,48.30
2017-08-25T14:58:18.006Z,48.10
2017-08-25T15:00:45.039Z,48.00
2017-08-25T15:03:12.079Z,47.80
2017-08-25T15:05:39.148Z,48.10
2017-08-25T15:08:06.176Z,48.20
2017-08-25T15:10:33.389Z,48.30
2017-08-25T15:13:00.554Z,47.90
2017-08-25T15:15:27.655Z,47.90
2017-08-25T15:17:54.722Z,47.70
2017-08-25T15:20:21.747Z,48.00
2017-08-25T15:22:48.773Z,47.50
2017-08-25T15:25:15.835Z,48.10
2017-08-25T15:27:42.889Z,48.10
2017-08-25T15:30:10.102Z,48.20
2017-08-25T15:32:37.157Z,47.90
2017-08-25T15:35:04.252Z,48.30
2017-08-25T15:37:31.286Z,47.50
2017-08-25T15:39:58.328Z,47.50
2017-08-25T15:42:25.374Z,48.20
2017-08-25T15:44:52.465Z,47.70
2017-08-25T15:47:19.525Z,48.10
2017-08-25T15:49:46.551Z,48.10
2017-08-25T15:52:13.602Z,47.40
2017-08-25T15:54:40.621Z,47.80
2017-08-25T15:57:07.653Z,47.40
2017-08-25T15:59:34.769Z,47.80
2017-08-25T16:02:01.810Z,48.30
2017-08-25T16:04:28.916Z,48.20
2017-08-25T16:06:56.737Z,47.90
2017-08-25T16:09:23.773Z,48.10
2017-08-25T16:11:50.849Z,47.30
2017-08-25T16:14:17.900Z,47.50
2017-08-25T16:16:44.960Z,47.60
2017-08-25T16:19:12.061Z,48.40
2017-08-25T16:21:39.241Z,47.90
2017-08-25T16:24:06.287Z,48.20
2017-08-25T16:26:33.314Z,47.80
2017-08-25T16:29:00.378Z,47.80
2017-08-25T16:31:27.513Z,47.90
2017-08-25T16:33:54.560Z,47.50
2017-08-25T16:36:21.620Z,47.70
2017-08-25T16:38:48.651Z,47.70
2017-08-25T16:41:15.694Z,47.60
2017-08-25T16:43:42.729Z,49.10
2017-08-25T16:46:09.797Z,50.80
2017-08-25T16:48:36.821Z,53.00
2017-08-25T16:51:04.626Z,54.60
2017-08-25T16:53:31.679Z,54.70
2017-08-25T16:55:58.709Z,54.80
2017-08-25T16:58:25.748Z,53.90
2017-08-25T17:00:52.781Z,54.20
2017-08-25T17:03:19.790Z,54.00
2017-08-25T17:05:46.830Z,54.20
2017-08-25T17:08:13.858Z,54.20
2017-08-25T17:10:40.897Z,54.10
2017-08-25T17:13:07.910Z,53.90
2017-08-25T17:15:34.924Z,55.30
2017-08-25T17:18:01.995Z,55.60
2017-08-25T17:20:29.010Z,54.70
2017-08-25T17:22:56.040Z,54.80
2017-08-25T17:25:23.080Z,54.90
2017-08-25T17:27:50.111Z,54.50
2017-08-25T17:30:17.174Z,54.60
2017-08-25T17:32:44.216Z,54.40
2017-08-25T17:35:11.253Z,54.50
2017-08-25T17:37:38.298Z,53.60
2017-08-25T17:40:05.329Z,53.70
2017-08-25T17:42:32.353Z,53.90
2017-08-25T17:44:59.427Z,54.20
2017-08-25T17:47:26.454Z,54.80
2017-08-25T17:49:53.537Z,60.20
2017-08-25T17:52:20.559Z,60.30
2017-08-25T17:54:47.591Z,60.30
2017-08-25T17:57:14.639Z,60.00
2017-08-25T17:59:41.679Z,59.60
2017-08-25T18:02:08.744Z,58.40
2017-08-25T18:04:35.753Z,58.40
2017-08-25T18:07:02.821Z,58.10
2017-08-25T18:09:29.890Z,60.60
2017-08-25T18:11:56.919Z,61.30
2017-08-25T18:14:23.980Z,61.50
2017-08-25T18:16:51.019Z,62.00
2017-08-25T18:19:18.077Z,61.70
2017-08-25T18:21:45.135Z,61.70
2017-08-25T18:24:12.171Z,61.80
2017-08-25T18:26:39.185Z,62.00
2017-08-25T18:29:06.261Z,61.80
2017-08-25T18:31:33.271Z,61.70
2017-08-25T18:34:00.345Z,61.80
2017-08-25T18:36:28.139Z,61.60
2017-08-25T18:38:55.194Z,61.50
2017-08-25T18:41:22.218Z,61.80
2017-08-25T18:43:49.241Z,62.00
2017-08-25T18:46:16.303Z,62.10
2017-08-25T18:48:43.341Z,62.10
2017-08-25T18:51:10.384Z,62.10
2017-08-25T18:53:37.440Z,62.00
2017-08-25T18:56:04.476Z,62.20
2017-08-25T18:58:31.498Z,62.30
2017-08-25T19:00:58.539Z,62.50
2017-08-25T19:03:25.562Z,62.50
2017-08-25T19:05:52.634Z,62.70
2017-08-25T19:08:19.667Z,62.90
2017-08-25T19:10:46.736Z,62.70
2017-08-25T19:13:13.798Z,62.50
2017-08-25T19:15:40.811Z,62.60
2017-08-25T19:18:07.872Z,62.70
2017-08-25T19:20:34.897Z,62.50
2017-08-25T19:23:01.935Z,62.30
2017-08-25T19:25:28.978Z,62.60
2017-08-25T19:27:56.043Z,62.80
2017-08-25T19:30:23.098Z,62.80
2017-08-25T19:32:50.138Z,62.70
2017-08-25T19:35:17.167Z,63.20
2017-08-25T19:37:44.227Z,63.70
2017-08-25T19:40:11.307Z,63.80
2017-08-25T19:42:38.330Z,63.70
2017-08-25T19:45:05.362Z,63.70
2017-08-25T19:47:32.430Z,64.00
2017-08-25T19:49:59.451Z,64.00
2017-08-25T19:52:26.600Z,64.50
2017-08-25T19:54:53.667Z,64.70
2017-08-25T19:57:20.673Z,64.80
2017-08-25T19:59:47.718Z,64.40
2017-08-25T20:02:14.783Z,63.80
2017-08-25T20:04:41.811Z,63.60
2017-08-25T20:07:09.640Z,63.30
2017-08-25T20:09:36.667Z,63.30
2017-08-25T20:12:03.731Z,63.30
2017-08-25T20:14:30.747Z,63.30
2017-08-25T20:16:57.959Z,63.80
2017-08-25T20:19:27.230Z,63.90
2017-08-25T20:21:54.235Z,63.80
2017-08-25T20:24:21.289Z,63.70
2017-08-25T20:26:48.346Z,64.00
2017-08-25T20:29:15.366Z,64.40
2017-08-25T20:31:43.158Z,64.20
2017-08-25T20:34:10.227Z,64.20
2017-08-25T20:36:37.764Z,64.00
2017-08-25T20:39:05.651Z,63.60
2017-08-25T20:41:32.739Z,63.90
2017-08-25T22:05:57.701Z,63.40
2017-08-25T22:08:24.723Z,64.00
2017-08-25T22:10:51.783Z,63.90
2017-08-25T22:13:18.915Z,63.90
2017-08-25T22:15:46.003Z,65.20
2017-08-25T22:18:13.079Z,66.70
2017-08-25T22:20:40.185Z,67.50
2017-08-25T22:23:07.228Z,67.70
2017-08-25T22:25:34.263Z,66.70
2017-08-25T22:28:01.291Z,65.80
2017-08-25T22:30:28.348Z,65.70
2017-08-25T22:32:55.385Z,67.80
2017-08-25T22:35:22.738Z,66.30
2017-08-25T22:37:49.807Z,65.70
2017-08-25T22:40:16.819Z,67.70
2017-08-25T22:42:43.861Z,66.80
2017-08-25T22:45:10.911Z,66.60
2017-08-25T22:47:37.934Z,66.40
2017-08-25T22:50:04.979Z,65.20
2017-08-25T22:52:32.042Z,64.90
2017-08-25T22:54:59.070Z,64.80
2017-08-25T22:57:26.126Z,64.60
2017-08-25T22:59:53.398Z,64.50
2017-08-25T23:02:21.219Z,64.60
2017-08-25T23:04:48.234Z,64.60
2017-08-25T23:07:15.287Z,66.00
2017-08-25T23:09:42.894Z,68.50
2017-08-25T23:12:09.907Z,68.00
2017-08-25T23:14:36.919Z,66.70
2017-08-25T23:17:03.979Z,65.90
2017-08-25T23:19:30.994Z,65.30
2017-08-25T23:21:58.060Z,65.20
2017-08-25T23:24:25.120Z,65.70
2017-08-25T23:26:52.937Z,67.90
2017-08-25T23:29:19.999Z,67.90
2017-08-25T23:31:47.020Z,69.20
2017-08-25T23:34:14.070Z,68.90
2017-08-25T23:36:41.195Z,68.20
2017-08-25T23:39:08.223Z,66.50
2017-08-25T23:41:35.275Z,65.60
2017-08-25T23:44:02.331Z,65.30
2017-08-25T23:46:29.404Z,67.30
2017-08-25T23:48:56.425Z,69.80
2017-08-25T23:51:23.442Z,67.40
2017-08-25T23:53:50.481Z,66.90
2017-08-25T23:56:17.567Z,66.60
2017-08-25T23:58:45.343Z,65.70
